• Join FlightAware (Why Join?)
  • Login
  • US Flag 
12:21AM EST


 

Airport Tracker/Info


-or-


 

Live Flight TrackerFlight Track Log ✈ CHQ4762 ✈ 21-Apr-2013 ✈ KORD - KIND

Flight Track Log - Related Links

Times and Time Zones

All times are in EDT time to prevent confusion due to time zone crossing. See the CHQ4762 flight status page for this flight to view local times or setup timezone preferences in your user account.

Time Position Orientation Groundspeed Altitude Reporting Facility
EDT Latitude Longitude Course Direction KTS MPH feet Rate Location/Type
10:31AM 41.9500 -87.9167 172° South 159 183 1,800  Level Chicago TRACON
10:32AM 41.9000 -87.9167 180° South 180 207 4,200 2,280 Climbing Chicago TRACON
10:33AM 41.8747 -87.9136 175° South 177 204 5,100 1,200 Climbing Chicago Center
10:34AM 41.8200 -87.8742 152° Southeast 223 257 6,000 900 Climbing Chicago Center
10:35AM 41.6565 -87.6673 157° South  Level Estimated
10:35AM 41.7583 -87.8281 151° Southeast 240 276 7,000  Level Chicago Center
10:36AM 41.5751 -87.6078 156° South  Level Estimated
10:36AM 41.6914 -87.7753 150° Southeast 272 313 9,300  Level Chicago Center
10:37AM 41.4833 -87.5898 172° South  Level FlightAware Approximate
10:37AM 41.6192 -87.7197 150° Southeast 294 338 11,300  Level Chicago Center
10:38AM 41.5408 -87.6661 153° Southeast 311 358 12,900 1,560 Climbing Chicago Center
10:39AM 41.4544 -87.6161 157° South 331 381 14,500 1,740 Climbing Chicago Center
10:40AM 41.3658 -87.5642 156° South 344 396 16,500 1,740 Climbing Chicago Center
10:41AM 41.2603 -87.5028 156° South 343 395 18,200 1,680 Climbing Chicago Center
10:42AM 41.1739 -87.4517 156° South 342 394 20,000 1,320 Climbing Chicago Center
10:43AM 41.0850 -87.3989 156° South 345 397 21,000 480 Climbing Chicago Center
10:44AM 40.9922 -87.3469 157° South 355 409 21,000  Level Chicago Center
10:45AM 40.8978 -87.2928 157° South 367 422 21,000  Level Chicago Center
10:46AM 40.8028 -87.2378 156° South 372 428 21,000  Level Chicago Center
10:47AM 40.7069 -87.1831 157° South 375 432 21,000 -360 Level Chicago Center
10:48AM 40.5917 -87.1172 157° South 376 433 20,300 -1,320 Descending Chicago Center
10:49AM 40.4936 -87.0622 157° South 381 438 18,300 -1,740 Descending Chicago Center
10:50AM 40.3964 -87.0061 156° South 382 440 16,800 -1,680 Descending Chicago Center
10:51AM 40.3014 -86.9522 157° South 372 428 14,900 -1,860 Descending Chicago Center
10:52AM 40.2114 -86.8928 153° Southeast 364 419 13,000 -1,620 Descending Chicago Center
10:53AM 40.1389 -86.7972 135° Southeast 366 421 11,600 -1,260 Descending Chicago Center
10:54AM 40.0867 -86.7264 134° Southeast 371 427 10,900 -480 Descending Indianapolis Center
10:55AM 40.0011 -86.6578 148° Southeast 369 425 10,800 -600 Descending Indianapolis Center
10:56AM 39.9183 -86.6067 155° Southeast 346 398 9,700 -1,320 Descending Indianapolis Center
10:57AM 39.8450 -86.5603 154° Southeast 320 368 8,200 -1,620 Descending Indianapolis Center
10:58AM 39.7739 -86.5139 153° Southeast 302 348 6,400 -1,440 Descending Indianapolis Center
10:59AM 39.7036 -86.4667 153° Southeast 287 330 5,300 -1,140 Descending Indianapolis Center